KIPJ

Lincolnton-Lincoln County Regional Airport

Lincolnton, North Carolina, USA
METAR KIPJ 180245Z AUTO 00000KT 10SM OVC022 09/00 A3019 RMK AO2 T00900002
Observed Flight Rules
Dec-18 @ 02:45 UTC (27 minutes ago) Marginal Visual Flight Rules
Wind Visibility Clouds
Calm 10 miles
  • Overcast at 2,200' AGL
Temperatures Readings
Current 9°C / 48°F
Dewpoint 0°C / 32°F
Humidity 54%
Altimeter 30.19" Hg
Pressure 1022 hPa
Elevation 267
METAR KIPJ 180245Z AUTO 00000KT 10SM OVC022 09/00 A3019 RMK AO2 T00900002
Observed Flight Rules
Dec-18 @ 02:45 UTC
(27 minutes ago)
MVFR
Wind Visibility
Calm 10 miles
Clouds
  • Overcast at 2,200' AGL
Temperature Dewpoint
9°C / 48°F 0°C / 32°F
Humidity Altimeter Pressure
54% 30.19" Hg 1022 hPa